createdAt,value
2022-12-11T00:00:10.721Z,92.10
2022-12-11T00:02:38.985Z,91.80
2022-12-11T00:05:06.375Z,91.50
2022-12-11T00:07:33.175Z,91.70
2022-12-11T00:10:00.018Z,91.70
2022-12-11T00:12:26.780Z,91.70
2022-12-11T00:14:53.822Z,91.60
2022-12-11T00:17:20.601Z,91.50
2022-12-11T00:19:48.857Z,91.60
2022-12-11T00:22:15.658Z,91.70
2022-12-11T00:24:42.468Z,91.60
2022-12-11T00:27:09.309Z,91.60
2022-12-11T00:29:36.218Z,91.50
2022-12-11T00:32:03.093Z,91.40
2022-12-11T00:34:30.500Z,91.60
2022-12-11T00:36:58.684Z,91.50
2022-12-11T00:39:25.552Z,91.60
2022-12-11T00:41:52.305Z,91.70
2022-12-11T00:44:19.153Z,91.90
2022-12-11T00:46:45.933Z,91.70
2022-12-11T00:49:12.732Z,91.40
2022-12-11T00:51:39.653Z,91.50
2022-12-11T00:54:07.942Z,91.50
2022-12-11T00:56:34.773Z,91.70
2022-12-11T00:59:01.699Z,91.80
2022-12-11T01:01:28.606Z,91.70
2022-12-11T01:03:55.439Z,91.60
2022-12-11T01:06:24.393Z,91.60
2022-12-11T01:08:52.290Z,91.50
2022-12-11T01:11:20.462Z,91.50
2022-12-11T01:13:47.221Z,91.50
2022-12-11T01:16:15.551Z,91.60
2022-12-11T01:18:42.716Z,91.70
2022-12-11T01:21:11.440Z,91.30
2022-12-11T01:23:38.678Z,91.50
2022-12-11T01:26:08.040Z,91.30
2022-12-11T01:28:36.636Z,91.50
2022-12-11T01:31:07.845Z,91.50
2022-12-11T01:33:34.685Z,91.50
2022-12-11T01:36:01.476Z,91.30
2022-12-11T01:38:28.298Z,91.20
2022-12-11T01:40:55.104Z,91.20
2022-12-11T01:43:21.955Z,91.30
2022-12-11T01:45:50.316Z,91.10
2022-12-11T01:48:22.212Z,91.00
2022-12-11T01:50:51.177Z,91.60
2022-12-11T01:53:22.673Z,91.00
2022-12-11T01:55:51.709Z,91.00
2022-12-11T01:58:20.584Z,90.90
2022-12-11T02:00:47.568Z,90.90
2022-12-11T02:03:15.808Z,91.20
2022-12-11T02:05:42.893Z,91.20
2022-12-11T02:08:10.044Z,90.90
2022-12-11T02:10:49.388Z,90.70
2022-12-11T02:13:21.389Z,90.50
2022-12-11T02:15:53.576Z,90.80
2022-12-11T02:18:29.438Z,90.70
2022-12-11T02:21:07.081Z,90.90
2022-12-11T02:24:00.533Z,90.80
2022-12-11T02:26:50.147Z,90.70
2022-12-11T02:29:22.968Z,90.70
2022-12-11T02:31:55.903Z,90.70
2022-12-11T02:34:29.710Z,90.50
2022-12-11T02:37:01.998Z,90.60
2022-12-11T02:39:29.545Z,90.80
2022-12-11T02:41:57.302Z,90.70
2022-12-11T02:44:29.088Z,90.70
2022-12-11T02:46:56.374Z,90.70
2022-12-11T02:49:24.356Z,90.10
2022-12-11T02:51:53.155Z,90.00
2022-12-11T02:54:25.334Z,90.40
2022-12-11T02:56:57.374Z,90.00
2022-12-11T02:59:30.953Z,90.30
2022-12-11T03:01:58.527Z,90.00
2022-12-11T03:04:25.460Z,90.10
2022-12-11T03:06:56.299Z,90.50
2022-12-11T03:09:23.148Z,90.70
2022-12-11T03:11:49.998Z,90.60
2022-12-11T03:14:16.873Z,90.60
2022-12-11T03:16:53.264Z,90.30
2022-12-11T03:19:27.834Z,89.70
2022-12-11T03:22:03.222Z,89.90
2022-12-11T03:24:33.844Z,89.90
2022-12-11T03:27:11.030Z,89.60
2022-12-11T03:29:42.958Z,89.70
2022-12-11T03:32:14.489Z,89.10
2022-12-11T03:34:45.267Z,89.90
2022-12-11T03:37:13.793Z,90.50
2022-12-11T03:39:44.260Z,90.10
2022-12-11T03:42:14.328Z,90.20
2022-12-11T03:44:46.263Z,90.10
2022-12-11T03:47:18.109Z,89.80
2022-12-11T03:49:46.392Z,89.40
2022-12-11T03:52:15.585Z,90.10
2022-12-11T03:54:45.762Z,88.60
2022-12-11T03:57:22.369Z,89.50
2022-12-11T03:59:49.676Z,90.10
2022-12-11T04:02:17.898Z,90.20
2022-12-11T04:04:44.897Z,90.50
2022-12-11T04:07:11.718Z,90.50
2022-12-11T04:09:38.525Z,90.90
2022-12-11T04:12:05.734Z,90.90
2022-12-11T04:14:32.582Z,91.00
2022-12-11T04:17:00.737Z,90.70
2022-12-11T04:19:28.913Z,90.80
2022-12-11T04:21:55.755Z,90.70
2022-12-11T04:24:22.674Z,91.00
2022-12-11T04:26:49.477Z,91.00
2022-12-11T04:29:16.266Z,91.30
2022-12-11T04:31:43.072Z,91.00
2022-12-11T04:34:09.884Z,90.90
2022-12-11T04:36:38.077Z,90.40
2022-12-11T04:39:05.660Z,90.10
2022-12-11T04:41:33.843Z,90.20
2022-12-11T04:44:00.734Z,90.40
2022-12-11T04:46:27.601Z,90.70
2022-12-11T04:48:57.586Z,90.50
2022-12-11T04:51:25.027Z,90.80
2022-12-11T04:53:53.480Z,90.20
2022-12-11T04:56:21.097Z,90.40
2022-12-11T04:58:48.492Z,90.20
2022-12-11T05:01:17.391Z,89.60
2022-12-11T05:03:44.548Z,90.20
2022-12-11T05:06:12.220Z,89.90
2022-12-11T05:08:41.176Z,89.30
2022-12-11T05:11:11.737Z,88.70
2022-12-11T05:13:39.310Z,88.00
2022-12-11T05:16:07.210Z,89.00
2022-12-11T05:18:34.122Z,88.00
2022-12-11T05:21:02.657Z,88.40
2022-12-11T05:23:29.865Z,88.70
2022-12-11T05:25:58.471Z,88.00
2022-12-11T05:28:29.005Z,87.20
2022-12-11T05:30:56.811Z,87.50
2022-12-11T05:33:23.933Z,87.20
2022-12-11T05:35:50.797Z,87.30
2022-12-11T05:38:17.857Z,87.90
2022-12-11T05:40:44.775Z,87.90
2022-12-11T05:43:11.745Z,88.30
2022-12-11T05:45:40.058Z,88.50
2022-12-11T05:48:07.175Z,87.80
2022-12-11T05:50:34.211Z,87.60
2022-12-11T05:53:01.145Z,88.90
2022-12-11T05:55:28.054Z,88.40
2022-12-11T05:57:54.967Z,89.20
2022-12-11T06:00:21.958Z,88.10
2022-12-11T06:02:50.438Z,89.70
2022-12-11T06:05:17.484Z,88.80
2022-12-11T06:07:44.447Z,88.90
2022-12-11T06:10:11.457Z,89.00
2022-12-11T06:12:38.321Z,88.90
2022-12-11T06:15:05.985Z,88.50
2022-12-11T06:17:33.984Z,88.30
2022-12-11T06:20:02.290Z,89.50
2022-12-11T06:22:29.187Z,89.30
2022-12-11T06:24:56.077Z,89.20
2022-12-11T06:27:22.995Z,89.00
2022-12-11T06:29:49.966Z,88.90
2022-12-11T06:32:16.903Z,89.60
2022-12-11T06:34:43.823Z,89.90
2022-12-11T06:37:12.103Z,89.20
2022-12-11T06:39:38.998Z,90.00
2022-12-11T06:42:05.955Z,90.00
2022-12-11T06:44:32.958Z,89.70
2022-12-11T06:47:00.006Z,90.10
2022-12-11T06:49:27.105Z,90.10
2022-12-11T06:51:54.082Z,90.10
2022-12-11T06:54:25.828Z,90.50
2022-12-11T06:56:52.785Z,90.50
2022-12-11T06:59:19.706Z,90.10
2022-12-11T07:01:46.750Z,91.30
2022-12-11T07:04:13.706Z,91.00
2022-12-11T07:06:40.733Z,90.60
2022-12-11T07:09:07.651Z,91.00
2022-12-11T07:11:36.216Z,90.90
2022-12-11T07:14:03.169Z,90.80
2022-12-11T07:16:30.101Z,90.90
2022-12-11T07:18:58.894Z,90.30
2022-12-11T07:28:21.957Z,90.30
2022-12-11T07:30:48.933Z,91.10
2022-12-11T07:33:15.875Z,90.70
2022-12-11T07:35:42.809Z,91.60
2022-12-11T07:38:09.806Z,90.30
2022-12-11T07:40:36.754Z,90.10
2022-12-11T07:43:03.545Z,90.50
2022-12-11T07:45:32.064Z,90.10
2022-12-11T07:47:59.466Z,90.20
2022-12-11T07:50:26.294Z,90.50
2022-12-11T07:52:53.080Z,90.60
2022-12-11T07:55:19.878Z,90.30
2022-12-11T07:57:46.666Z,90.20
2022-12-11T08:00:14.240Z,90.40
2022-12-11T08:02:42.722Z,90.40
2022-12-11T08:05:10.386Z,90.20
2022-12-11T08:07:37.416Z,89.80
2022-12-11T08:10:05.665Z,89.30
2022-12-11T08:12:32.523Z,88.50
2022-12-11T08:14:59.370Z,88.50
2022-12-11T08:17:30.261Z,88.80
2022-12-11T08:20:01.078Z,88.70
2022-12-11T08:22:27.873Z,88.80
2022-12-11T08:24:54.710Z,89.00
2022-12-11T08:27:21.548Z,89.80
2022-12-11T08:29:48.383Z,89.70
2022-12-11T08:32:15.302Z,89.50
2022-12-11T08:34:42.175Z,89.20
2022-12-11T08:37:10.346Z,89.60
2022-12-11T08:39:37.377Z,89.40
2022-12-11T08:42:04.428Z,88.80
2022-12-11T08:44:31.221Z,89.10
2022-12-11T08:46:58.036Z,89.50
2022-12-11T08:49:27.519Z,90.10
2022-12-11T08:51:56.788Z,89.20
2022-12-11T08:54:25.022Z,89.00
2022-12-11T08:56:57.644Z,89.70
2022-12-11T08:59:24.928Z,89.60
2022-12-11T09:01:52.081Z,88.60
2022-12-11T09:04:19.080Z,88.90
2022-12-11T09:06:45.916Z,89.20
2022-12-11T09:09:12.800Z,88.60
2022-12-11T09:11:42.227Z,89.40
2022-12-11T09:14:09.124Z,89.40
2022-12-11T09:16:38.305Z,89.10
2022-12-11T09:19:07.357Z,89.50
2022-12-11T09:21:34.308Z,89.00
2022-12-11T09:24:02.011Z,89.90
2022-12-11T09:26:30.068Z,89.10
2022-12-11T09:28:58.682Z,88.70
2022-12-11T09:31:27.389Z,89.10
2022-12-11T09:33:56.181Z,89.30
2022-12-11T09:36:23.338Z,89.20
2022-12-11T09:38:50.167Z,89.20
2022-12-11T09:41:34.809Z,89.50
2022-12-11T09:44:16.229Z,88.80
2022-12-11T09:46:44.321Z,89.30
2022-12-11T09:49:26.798Z,88.90
2022-12-11T09:52:03.725Z,88.40
2022-12-11T09:54:30.692Z,88.40
2022-12-11T09:57:09.115Z,89.10
2022-12-11T09:59:48.375Z,88.70
2022-12-11T10:02:25.753Z,89.70
2022-12-11T10:05:03.949Z,89.70
2022-12-11T10:07:35.261Z,89.10
2022-12-11T10:10:11.718Z,88.10
2022-12-11T10:12:46.105Z,88.80
2022-12-11T10:15:25.916Z,88.50
2022-12-11T10:17:57.556Z,87.80
2022-12-11T10:20:31.046Z,87.70
2022-12-11T10:22:59.161Z,87.30
2022-12-11T10:25:28.977Z,87.90
2022-12-11T10:27:56.453Z,87.70
2022-12-11T10:30:30.407Z,87.20
2022-12-11T10:33:07.746Z,87.80
2022-12-11T10:35:39.053Z,87.60
2022-12-11T10:38:13.751Z,87.70
2022-12-11T10:40:43.725Z,86.50
2022-12-11T10:43:10.702Z,86.30
2022-12-11T10:45:39.172Z,87.10
2022-12-11T10:48:09.772Z,88.90
2022-12-11T10:50:37.692Z,88.20
2022-12-11T10:53:05.563Z,87.40
2022-12-11T10:55:43.701Z,88.20
2022-12-11T10:58:16.671Z,88.90
2022-12-11T11:00:45.979Z,89.10
2022-12-11T11:03:22.385Z,87.70
2022-12-11T11:05:49.721Z,88.30
2022-12-11T11:08:18.793Z,89.00
2022-12-11T11:10:53.769Z,88.60
2022-12-11T11:13:22.270Z,88.80
2022-12-11T11:15:58.247Z,88.70
2022-12-11T11:18:27.804Z,88.50
2022-12-11T11:20:54.930Z,88.50
2022-12-11T11:23:22.562Z,88.80
2022-12-11T11:25:51.306Z,88.90
2022-12-11T11:28:20.406Z,88.40
2022-12-11T11:30:58.759Z,89.40
2022-12-11T11:33:25.927Z,88.60
2022-12-11T11:35:54.780Z,87.90
2022-12-11T11:38:25.063Z,88.30
2022-12-11T11:41:04.870Z,88.00
2022-12-11T11:43:38.679Z,88.00
2022-12-11T11:46:13.851Z,88.00
2022-12-11T11:48:49.436Z,88.10
2022-12-11T11:51:22.895Z,88.10
2022-12-11T11:53:51.615Z,88.50
2022-12-11T11:56:25.511Z,88.90
2022-12-11T11:59:05.801Z,89.30
2022-12-11T12:01:34.073Z,89.00
2022-12-11T12:04:03.044Z,88.80
2022-12-11T12:07:04.219Z,88.30
2022-12-11T12:09:44.795Z,88.50
2022-12-11T12:12:25.509Z,88.70
2022-12-11T12:15:10.169Z,88.30
2022-12-11T12:17:55.415Z,88.30
2022-12-11T12:20:38.117Z,88.50
2022-12-11T12:23:36.322Z,88.90
2022-12-11T12:26:09.704Z,88.70
2022-12-11T12:28:44.238Z,88.20
2022-12-11T12:31:22.542Z,88.90
2022-12-11T12:34:02.234Z,88.80
